sensor_id;sensor_type;location;lat;lon;timestamp;temperature;humidity
47765;DHT22;33529;49.242;8.670;2022-09-13T00:00:59;15.10;99.90
47765;DHT22;33529;49.242;8.670;2022-09-13T00:03:27;15.00;99.90
47765;DHT22;33529;49.242;8.670;2022-09-13T00:05:54;14.90;99.90
47765;DHT22;33529;49.242;8.670;2022-09-13T00:08:22;14.90;99.90
47765;DHT22;33529;49.242;8.670;2022-09-13T00:10:55;14.80;99.90
47765;DHT22;33529;49.242;8.670;2022-09-13T00:13:22;14.80;99.90
47765;DHT22;33529;49.242;8.670;2022-09-13T00:15:49;14.80;99.90
47765;DHT22;33529;49.242;8.670;2022-09-13T00:18:17;14.70;99.90
47765;DHT22;33529;49.242;8.670;2022-09-13T00:20:44;14.70;99.90
47765;DHT22;33529;49.242;8.670;2022-09-13T00:23:11;14.70;99.90
47765;DHT22;33529;49.242;8.670;2022-09-13T00:25:39;14.70;99.90
47765;DHT22;33529;49.242;8.670;2022-09-13T00:28:06;14.80;99.90
47765;DHT22;33529;49.242;8.670;2022-09-13T00:30:33;14.70;99.90
47765;DHT22;33529;49.242;8.670;2022-09-13T00:33:00;14.70;99.90
47765;DHT22;33529;49.242;8.670;2022-09-13T00:35:30;14.80;99.90
47765;DHT22;33529;49.242;8.670;2022-09-13T00:38:00;14.80;99.90
47765;DHT22;33529;49.242;8.670;2022-09-13T00:40:27;14.80;99.90
47765;DHT22;33529;49.242;8.670;2022-09-13T00:42:56;14.80;99.90
47765;DHT22;33529;49.242;8.670;2022-09-13T00:45:26;14.80;99.90
47765;DHT22;33529;49.242;8.670;2022-09-13T00:48:03;14.80;99.90
47765;DHT22;33529;49.242;8.670;2022-09-13T00:50:39;14.80;99.90
47765;DHT22;33529;49.242;8.670;2022-09-13T00:53:14;14.80;99.90
47765;DHT22;33529;49.242;8.670;2022-09-13T00:55:46;14.80;99.90
47765;DHT22;33529;49.242;8.670;2022-09-13T00:58:30;14.70;99.90
47765;DHT22;33529;49.242;8.670;2022-09-13T01:01:00;14.70;99.90
47765;DHT22;33529;49.242;8.670;2022-09-13T01:03:29;14.80;99.90
47765;DHT22;33529;49.242;8.670;2022-09-13T01:06:11;14.60;99.90
47765;DHT22;33529;49.242;8.670;2022-09-13T01:08:42;14.60;99.90
47765;DHT22;33529;49.242;8.670;2022-09-13T01:11:17;14.50;99.90
47765;DHT22;33529;49.242;8.670;2022-09-13T01:13:46;14.50;99.90
47765;DHT22;33529;49.242;8.670;2022-09-13T01:16:13;14.50;99.90
47765;DHT22;33529;49.242;8.670;2022-09-13T01:18:40;14.50;99.90
47765;DHT22;33529;49.242;8.670;2022-09-13T01:21:33;14.40;99.90
47765;DHT22;33529;49.242;8.670;2022-09-13T01:29:45;14.30;99.90
47765;DHT22;33529;49.242;8.670;2022-09-13T01:43:57;14.20;99.90
47765;DHT22;33529;49.242;8.670;2022-09-13T01:49:29;14.20;99.90
47765;DHT22;33529;49.242;8.670;2022-09-13T01:55:07;14.20;99.90
47765;DHT22;33529;49.242;8.670;2022-09-13T01:58:15;14.10;99.90
47765;DHT22;33529;49.242;8.670;2022-09-13T02:00:47;14.00;99.90
47765;DHT22;33529;49.242;8.670;2022-09-13T02:03:37;14.00;99.90
47765;DHT22;33529;49.242;8.670;2022-09-13T02:06:16;14.00;99.90
47765;DHT22;33529;49.242;8.670;2022-09-13T02:09:09;14.00;99.90
47765;DHT22;33529;49.242;8.670;2022-09-13T02:11:39;14.00;99.90
47765;DHT22;33529;49.242;8.670;2022-09-13T02:14:18;14.10;99.90
47765;DHT22;33529;49.242;8.670;2022-09-13T02:17:06;14.10;99.90
47765;DHT22;33529;49.242;8.670;2022-09-13T02:19:46;14.00;99.90
47765;DHT22;33529;49.242;8.670;2022-09-13T02:22:17;14.00;99.90
47765;DHT22;33529;49.242;8.670;2022-09-13T02:24:49;13.90;99.90
47765;DHT22;33529;49.242;8.670;2022-09-13T02:27:24;14.00;99.90
47765;DHT22;33529;49.242;8.670;2022-09-13T02:29:57;13.90;99.90
47765;DHT22;33529;49.242;8.670;2022-09-13T02:32:33;13.90;99.90
47765;DHT22;33529;49.242;8.670;2022-09-13T02:35:11;13.90;99.90
47765;DHT22;33529;49.242;8.670;2022-09-13T02:37:42;13.90;99.90
47765;DHT22;33529;49.242;8.670;2022-09-13T02:40:15;13.80;99.90
47765;DHT22;33529;49.242;8.670;2022-09-13T02:42:49;13.80;99.90
47765;DHT22;33529;49.242;8.670;2022-09-13T02:45:18;13.80;99.90
47765;DHT22;33529;49.242;8.670;2022-09-13T02:47:55;13.80;99.90
47765;DHT22;33529;49.242;8.670;2022-09-13T02:50:33;13.80;99.90
47765;DHT22;33529;49.242;8.670;2022-09-13T02:58:51;13.70;99.90
47765;DHT22;33529;49.242;8.670;2022-09-13T03:01:22;13.70;99.90
47765;DHT22;33529;49.242;8.670;2022-09-13T03:03:53;13.80;99.90
47765;DHT22;33529;49.242;8.670;2022-09-13T03:06:25;13.70;99.90
47765;DHT22;33529;49.242;8.670;2022-09-13T03:08:53;13.70;99.90
47765;DHT22;33529;49.242;8.670;2022-09-13T03:17:27;13.60;99.90
47765;DHT22;33529;49.242;8.670;2022-09-13T03:28:04;13.30;99.90
47765;DHT22;33529;49.242;8.670;2022-09-13T03:30:48;13.20;99.90
47765;DHT22;33529;49.242;8.670;2022-09-13T03:33:39;13.20;99.90
47765;DHT22;33529;49.242;8.670;2022-09-13T03:36:22;13.30;99.90
47765;DHT22;33529;49.242;8.670;2022-09-13T03:38:59;13.40;99.90
47765;DHT22;33529;49.242;8.670;2022-09-13T03:41:33;13.40;99.90
47765;DHT22;33529;49.242;8.670;2022-09-13T03:44:05;13.30;99.90
47765;DHT22;33529;49.242;8.670;2022-09-13T03:46:45;13.30;99.90
47765;DHT22;33529;49.242;8.670;2022-09-13T03:49:17;13.40;99.90
47765;DHT22;33529;49.242;8.670;2022-09-13T03:51:48;13.50;99.90
47765;DHT22;33529;49.242;8.670;2022-09-13T03:54:31;13.60;99.90
47765;DHT22;33529;49.242;8.670;2022-09-13T03:57:10;13.60;99.90
47765;DHT22;33529;49.242;8.670;2022-09-13T03:59:47;13.70;99.90
47765;DHT22;33529;49.242;8.670;2022-09-13T04:02:18;13.70;99.90
47765;DHT22;33529;49.242;8.670;2022-09-13T04:04:46;13.70;99.90
47765;DHT22;33529;49.242;8.670;2022-09-13T04:07:16;13.70;99.90
47765;DHT22;33529;49.242;8.670;2022-09-13T04:09:44;13.70;99.90
47765;DHT22;33529;49.242;8.670;2022-09-13T04:12:12;13.70;99.90
47765;DHT22;33529;49.242;8.670;2022-09-13T04:14:43;13.70;99.90
47765;DHT22;33529;49.242;8.670;2022-09-13T04:17:10;13.70;99.90
47765;DHT22;33529;49.242;8.670;2022-09-13T04:19:38;13.70;99.90
47765;DHT22;33529;49.242;8.670;2022-09-13T04:22:05;13.60;99.90
47765;DHT22;33529;49.242;8.670;2022-09-13T04:24:54;13.60;99.90
47765;DHT22;33529;49.242;8.670;2022-09-13T04:27:30;13.60;99.90
47765;DHT22;33529;49.242;8.670;2022-09-13T04:29:56;13.60;99.90
47765;DHT22;33529;49.242;8.670;2022-09-13T04:32:23;13.60;99.90
47765;DHT22;33529;49.242;8.670;2022-09-13T04:34:50;13.50;99.90
47765;DHT22;33529;49.242;8.670;2022-09-13T04:37:26;13.50;99.90
47765;DHT22;33529;49.242;8.670;2022-09-13T04:39:53;13.50;99.90
47765;DHT22;33529;49.242;8.670;2022-09-13T04:42:20;13.50;99.90
47765;DHT22;33529;49.242;8.670;2022-09-13T04:44:47;13.60;99.90
47765;DHT22;33529;49.242;8.670;2022-09-13T04:47:15;13.60;99.90
47765;DHT22;33529;49.242;8.670;2022-09-13T04:49:42;13.60;99.90
47765;DHT22;33529;49.242;8.670;2022-09-13T04:52:15;13.60;99.90
47765;DHT22;33529;49.242;8.670;2022-09-13T04:54:42;13.60;99.90
47765;DHT22;33529;49.242;8.670;2022-09-13T04:57:09;13.70;99.90
47765;DHT22;33529;49.242;8.670;2022-09-13T04:59:42;13.70;99.90
47765;DHT22;33529;49.242;8.670;2022-09-13T05:02:09;13.60;99.90
47765;DHT22;33529;49.242;8.670;2022-09-13T05:04:36;13.70;99.90
47765;DHT22;33529;49.242;8.670;2022-09-13T05:07:03;13.80;99.90
47765;DHT22;33529;49.242;8.670;2022-09-13T05:09:30;13.80;99.90
47765;DHT22;33529;49.242;8.670;2022-09-13T05:11:57;13.80;99.90
47765;DHT22;33529;49.242;8.670;2022-09-13T05:14:25;13.90;99.90
47765;DHT22;33529;49.242;8.670;2022-09-13T05:16:52;14.00;99.90
47765;DHT22;33529;49.242;8.670;2022-09-13T05:19:19;14.00;99.90
47765;DHT22;33529;49.242;8.670;2022-09-13T05:21:46;13.90;99.90
47765;DHT22;33529;49.242;8.670;2022-09-13T05:24:13;14.00;99.90
47765;DHT22;33529;49.242;8.670;2022-09-13T05:26:40;14.10;99.90
47765;DHT22;33529;49.242;8.670;2022-09-13T05:29:10;14.10;99.90
47765;DHT22;33529;49.242;8.670;2022-09-13T05:31:39;14.20;99.90
47765;DHT22;33529;49.242;8.670;2022-09-13T05:34:11;14.20;99.90
47765;DHT22;33529;49.242;8.670;2022-09-13T05:36:43;14.20;99.90
47765;DHT22;33529;49.242;8.670;2022-09-13T05:39:13;14.20;99.90
47765;DHT22;33529;49.242;8.670;2022-09-13T05:42:01;14.30;99.90
47765;DHT22;33529;49.242;8.670;2022-09-13T05:44:27;14.30;99.90
47765;DHT22;33529;49.242;8.670;2022-09-13T05:46:54;14.30;99.90
47765;DHT22;33529;49.242;8.670;2022-09-13T05:49:21;14.40;99.90
47765;DHT22;33529;49.242;8.670;2022-09-13T05:51:48;14.50;99.90
47765;DHT22;33529;49.242;8.670;2022-09-13T05:54:15;14.40;99.90
47765;DHT22;33529;49.242;8.670;2022-09-13T05:56:42;14.50;99.90
47765;DHT22;33529;49.242;8.670;2022-09-13T05:59:13;14.40;99.90
47765;DHT22;33529;49.242;8.670;2022-09-13T06:01:42;14.40;99.90
47765;DHT22;33529;49.242;8.670;2022-09-13T06:04:09;14.40;99.90
47765;DHT22;33529;49.242;8.670;2022-09-13T06:06:38;14.50;99.90
47765;DHT22;33529;49.242;8.670;2022-09-13T06:09:05;14.50;99.90
47765;DHT22;33529;49.242;8.670;2022-09-13T06:11:34;14.60;99.90
47765;DHT22;33529;49.242;8.670;2022-09-13T06:14:01;14.70;99.90
47765;DHT22;33529;49.242;8.670;2022-09-13T06:16:28;14.80;99.90
47765;DHT22;33529;49.242;8.670;2022-09-13T06:18:56;14.80;99.90
47765;DHT22;33529;49.242;8.670;2022-09-13T06:21:23;14.90;99.90
47765;DHT22;33529;49.242;8.670;2022-09-13T06:23:55;15.10;99.90
47765;DHT22;33529;49.242;8.670;2022-09-13T06:26:23;15.10;99.90
47765;DHT22;33529;49.242;8.670;2022-09-13T06:28:52;15.30;99.90
47765;DHT22;33529;49.242;8.670;2022-09-13T06:31:21;15.30;99.90
47765;DHT22;33529;49.242;8.670;2022-09-13T06:33:48;15.40;99.90
47765;DHT22;33529;49.242;8.670;2022-09-13T06:36:18;15.50;99.90
47765;DHT22;33529;49.242;8.670;2022-09-13T06:38:46;15.70;99.90
47765;DHT22;33529;49.242;8.670;2022-09-13T06:41:16;15.90;99.90
47765;DHT22;33529;49.242;8.670;2022-09-13T06:43:44;16.10;99.90
47765;DHT22;33529;49.242;8.670;2022-09-13T06:46:13;16.30;99.90
47765;DHT22;33529;49.242;8.670;2022-09-13T06:48:41;16.40;99.90
47765;DHT22;33529;49.242;8.670;2022-09-13T06:51:11;16.50;99.90
47765;DHT22;33529;49.242;8.670;2022-09-13T06:53:38;16.50;99.90
47765;DHT22;33529;49.242;8.670;2022-09-13T06:56:08;16.60;99.90
47765;DHT22;33529;49.242;8.670;2022-09-13T06:58:36;16.60;99.90
47765;DHT22;33529;49.242;8.670;2022-09-13T07:01:10;16.70;99.90
47765;DHT22;33529;49.242;8.670;2022-09-13T07:03:41;16.80;99.90
47765;DHT22;33529;49.242;8.670;2022-09-13T07:06:14;16.80;99.90
47765;DHT22;33529;49.242;8.670;2022-09-13T07:08:50;16.90;99.90
47765;DHT22;33529;49.242;8.670;2022-09-13T07:11:19;16.90;99.90
47765;DHT22;33529;49.242;8.670;2022-09-13T07:13:50;17.10;99.90
47765;DHT22;33529;49.242;8.670;2022-09-13T07:16:19;17.10;99.90
47765;DHT22;33529;49.242;8.670;2022-09-13T07:18:51;17.10;99.90
47765;DHT22;33529;49.242;8.670;2022-09-13T07:21:19;17.20;99.90
47765;DHT22;33529;49.242;8.670;2022-09-13T07:23:46;17.20;99.90
47765;DHT22;33529;49.242;8.670;2022-09-13T07:26:14;17.20;99.90
47765;DHT22;33529;49.242;8.670;2022-09-13T07:28:43;17.30;99.90
47765;DHT22;33529;49.242;8.670;2022-09-13T07:31:54;17.30;99.90
47765;DHT22;33529;49.242;8.670;2022-09-13T07:34:06;17.40;99.90
47765;DHT22;33529;49.242;8.670;2022-09-13T07:36:35;17.30;99.90
47765;DHT22;33529;49.242;8.670;2022-09-13T07:39:03;17.30;99.90
47765;DHT22;33529;49.242;8.670;2022-09-13T07:41:33;17.40;99.90
47765;DHT22;33529;49.242;8.670;2022-09-13T07:44:01;17.50;99.90
47765;DHT22;33529;49.242;8.670;2022-09-13T07:46:29;17.60;99.90
47765;DHT22;33529;49.242;8.670;2022-09-13T07:48:59;17.70;99.90
47765;DHT22;33529;49.242;8.670;2022-09-13T07:51:31;17.90;99.90
47765;DHT22;33529;49.242;8.670;2022-09-13T07:54:01;17.90;99.90
47765;DHT22;33529;49.242;8.670;2022-09-13T07:56:31;18.10;99.90
47765;DHT22;33529;49.242;8.670;2022-09-13T07:58:59;18.30;99.90
47765;DHT22;33529;49.242;8.670;2022-09-13T08:01:32;18.40;99.90
47765;DHT22;33529;49.242;8.670;2022-09-13T08:04:04;18.50;99.90
47765;DHT22;33529;49.242;8.670;2022-09-13T08:06:33;18.60;99.90
47765;DHT22;33529;49.242;8.670;2022-09-13T08:09:00;18.80;99.90
47765;DHT22;33529;49.242;8.670;2022-09-13T08:11:49;18.90;99.90
47765;DHT22;33529;49.242;8.670;2022-09-13T08:14:19;18.90;99.90
47765;DHT22;33529;49.242;8.670;2022-09-13T08:16:46;18.90;99.90
47765;DHT22;33529;49.242;8.670;2022-09-13T08:19:17;18.90;99.90
47765;DHT22;33529;49.242;8.670;2022-09-13T08:21:45;19.00;99.90
47765;DHT22;33529;49.242;8.670;2022-09-13T08:24:15;18.90;99.90
47765;DHT22;33529;49.242;8.670;2022-09-13T08:26:43;18.90;99.90
47765;DHT22;33529;49.242;8.670;2022-09-13T08:29:11;19.10;99.90
47765;DHT22;33529;49.242;8.670;2022-09-13T08:31:38;19.10;99.90
47765;DHT22;33529;49.242;8.670;2022-09-13T08:34:11;19.20;99.90
47765;DHT22;33529;49.242;8.670;2022-09-13T08:36:40;19.20;99.90
47765;DHT22;33529;49.242;8.670;2022-09-13T08:39:08;19.30;99.90
47765;DHT22;33529;49.242;8.670;2022-09-13T08:47:03;19.00;99.90
47765;DHT22;33529;49.242;8.670;2022-09-13T08:49:43;19.10;99.90
47765;DHT22;33529;49.242;8.670;2022-09-13T08:54:41;19.50;99.90
47765;DHT22;33529;49.242;8.670;2022-09-13T08:57:16;19.50;99.90
47765;DHT22;33529;49.242;8.670;2022-09-13T09:00:02;19.60;99.90
47765;DHT22;33529;49.242;8.670;2022-09-13T09:02:57;19.70;99.90
47765;DHT22;33529;49.242;8.670;2022-09-13T09:05:28;19.80;99.90
47765;DHT22;33529;49.242;8.670;2022-09-13T09:10:46;20.30;99.90
47765;DHT22;33529;49.242;8.670;2022-09-13T09:13:34;20.50;99.90
47765;DHT22;33529;49.242;8.670;2022-09-13T09:18:58;20.90;99.90
47765;DHT22;33529;49.242;8.670;2022-09-13T09:21:26;21.30;99.90
47765;DHT22;33529;49.242;8.670;2022-09-13T09:23:54;21.60;99.90
47765;DHT22;33529;49.242;8.670;2022-09-13T09:26:27;21.70;99.90
47765;DHT22;33529;49.242;8.670;2022-09-13T09:29:19;22.00;99.90
47765;DHT22;33529;49.242;8.670;2022-09-13T09:32:14;22.00;99.90
47765;DHT22;33529;49.242;8.670;2022-09-13T09:37:30;22.40;99.90
47765;DHT22;33529;49.242;8.670;2022-09-13T09:40:02;22.60;99.90
47765;DHT22;33529;49.242;8.670;2022-09-13T09:47:53;23.00;99.90
47765;DHT22;33529;49.242;8.670;2022-09-13T09:50:27;23.00;99.90
47765;DHT22;33529;49.242;8.670;2022-09-13T09:53:47;23.10;99.90
47765;DHT22;33529;49.242;8.670;2022-09-13T09:56:23;23.10;99.90
47765;DHT22;33529;49.242;8.670;2022-09-13T09:58:52;23.00;99.90
47765;DHT22;33529;49.242;8.670;2022-09-13T10:01:33;23.20;99.90
47765;DHT22;33529;49.242;8.670;2022-09-13T10:06:28;23.30;99.90
47765;DHT22;33529;49.242;8.670;2022-09-13T10:09:03;23.60;99.90
47765;DHT22;33529;49.242;8.670;2022-09-13T10:11:49;23.90;99.90
47765;DHT22;33529;49.242;8.670;2022-09-13T10:14:41;24.00;99.60
47765;DHT22;33529;49.242;8.670;2022-09-13T10:17:25;23.70;98.30
47765;DHT22;33529;49.242;8.670;2022-09-13T10:19:56;23.90;98.30
47765;DHT22;33529;49.242;8.670;2022-09-13T10:22:31;24.30;99.60
47765;DHT22;33529;49.242;8.670;2022-09-13T10:25:21;24.30;98.30
47765;DHT22;33529;49.242;8.670;2022-09-13T10:27:52;24.00;97.00
47765;DHT22;33529;49.242;8.670;2022-09-13T10:30:34;23.80;98.40
47765;DHT22;33529;49.242;8.670;2022-09-13T10:33:03;24.10;99.40
47765;DHT22;33529;49.242;8.670;2022-09-13T10:35:32;24.20;97.10
47765;DHT22;33529;49.242;8.670;2022-09-13T10:37:59;24.00;98.30
47765;DHT22;33529;49.242;8.670;2022-09-13T10:40:31;23.90;99.40
47765;DHT22;33529;49.242;8.670;2022-09-13T10:43:14;23.80;99.20
47765;DHT22;33529;49.242;8.670;2022-09-13T10:45:48;23.80;97.50
47765;DHT22;33529;49.242;8.670;2022-09-13T10:48:17;23.90;98.50
47765;DHT22;33529;49.242;8.670;2022-09-13T10:51:03;23.90;99.00
47765;DHT22;33529;49.242;8.670;2022-09-13T10:53:37;23.90;97.00
47765;DHT22;33529;49.242;8.670;2022-09-13T10:56:21;24.00;97.90
47765;DHT22;33529;49.242;8.670;2022-09-13T10:59:27;24.10;97.60
47765;DHT22;33529;49.242;8.670;2022-09-13T11:02:25;24.30;98.00
47765;DHT22;33529;49.242;8.670;2022-09-13T11:04:55;24.40;97.10
47765;DHT22;33529;49.242;8.670;2022-09-13T11:07:35;24.40;96.80
47765;DHT22;33529;49.242;8.670;2022-09-13T11:16:33;24.60;97.10
47765;DHT22;33529;49.242;8.670;2022-09-13T11:19:33;24.70;97.70
47765;DHT22;33529;49.242;8.670;2022-09-13T11:38:12;25.00;97.50
47765;DHT22;33529;49.242;8.670;2022-09-13T11:41:02;25.20;97.50
47765;DHT22;33529;49.242;8.670;2022-09-13T11:46:35;25.30;97.50
47765;DHT22;33529;49.242;8.670;2022-09-13T11:57:25;25.30;95.60
47765;DHT22;33529;49.242;8.670;2022-09-13T11:59:56;25.10;95.00
47765;DHT22;33529;49.242;8.670;2022-09-13T12:02:34;25.20;95.40
47765;DHT22;33529;49.242;8.670;2022-09-13T12:05:14;25.50;95.80
47765;DHT22;33529;49.242;8.670;2022-09-13T12:10:36;25.80;95.30
47765;DHT22;33529;49.242;8.670;2022-09-13T12:13:08;25.90;94.80
47765;DHT22;33529;49.242;8.670;2022-09-13T12:15:39;26.20;93.80
47765;DHT22;33529;49.242;8.670;2022-09-13T12:18:14;26.20;94.90
47765;DHT22;33529;49.242;8.670;2022-09-13T12:20:48;26.30;93.10
47765;DHT22;33529;49.242;8.670;2022-09-13T12:23:22;26.20;93.20
47765;DHT22;33529;49.242;8.670;2022-09-13T12:26:19;26.30;93.70
47765;DHT22;33529;49.242;8.670;2022-09-13T12:28:48;26.40;93.90
47765;DHT22;33529;49.242;8.670;2022-09-13T12:31:26;26.40;93.50
47765;DHT22;33529;49.242;8.670;2022-09-13T12:33:54;26.40;93.60
47765;DHT22;33529;49.242;8.670;2022-09-13T12:44:37;26.50;92.00
47765;DHT22;33529;49.242;8.670;2022-09-13T12:47:31;26.50;93.80
47765;DHT22;33529;49.242;8.670;2022-09-13T12:53:25;26.40;94.30
47765;DHT22;33529;49.242;8.670;2022-09-13T12:56:35;26.30;94.30
47765;DHT22;33529;49.242;8.670;2022-09-13T12:59:27;26.30;94.50
47765;DHT22;33529;49.242;8.670;2022-09-13T13:02:20;26.40;94.70
47765;DHT22;33529;49.242;8.670;2022-09-13T13:04:51;26.40;93.90
47765;DHT22;33529;49.242;8.670;2022-09-13T13:07:22;26.40;93.70
47765;DHT22;33529;49.242;8.670;2022-09-13T13:09:51;26.40;94.30
47765;DHT22;33529;49.242;8.670;2022-09-13T13:12:37;26.40;93.60
47765;DHT22;33529;49.242;8.670;2022-09-13T13:17:52;26.70;94.20
47765;DHT22;33529;49.242;8.670;2022-09-13T13:20:45;26.90;93.40
47765;DHT22;33529;49.242;8.670;2022-09-13T13:23:20;27.30;93.10
47765;DHT22;33529;49.242;8.670;2022-09-13T13:26:08;27.40;92.80
47765;DHT22;33529;49.242;8.670;2022-09-13T13:31:38;27.80;92.20
47765;DHT22;33529;49.242;8.670;2022-09-13T13:54:57;27.60;90.50
47765;DHT22;33529;49.242;8.670;2022-09-13T14:00:26;27.70;89.20
47765;DHT22;33529;49.242;8.670;2022-09-13T14:03:30;27.80;89.00
47765;DHT22;33529;49.242;8.670;2022-09-13T14:06:14;27.80;87.10
47765;DHT22;33529;49.242;8.670;2022-09-13T14:11:53;28.00;86.90
47765;DHT22;33529;49.242;8.670;2022-09-13T14:20:10;27.80;86.00
47765;DHT22;33529;49.242;8.670;2022-09-13T14:22:38;27.90;88.30
47765;DHT22;33529;49.242;8.670;2022-09-13T14:25:34;27.90;88.20
47765;DHT22;33529;49.242;8.670;2022-09-13T14:28:01;27.80;86.80
47765;DHT22;33529;49.242;8.670;2022-09-13T14:30:34;27.80;87.90
47765;DHT22;33529;49.242;8.670;2022-09-13T14:33:02;27.90;88.70
47765;DHT22;33529;49.242;8.670;2022-09-13T14:35:36;28.00;87.80
47765;DHT22;33529;49.242;8.670;2022-09-13T14:38:21;28.00;83.40
47765;DHT22;33529;49.242;8.670;2022-09-13T14:40:51;28.00;86.60
47765;DHT22;33529;49.242;8.670;2022-09-13T14:43:20;28.00;88.80
47765;DHT22;33529;49.242;8.670;2022-09-13T14:45:51;28.10;90.00
47765;DHT22;33529;49.242;8.670;2022-09-13T14:48:34;28.10;90.40
47765;DHT22;33529;49.242;8.670;2022-09-13T14:51:27;28.20;88.90
47765;DHT22;33529;49.242;8.670;2022-09-13T14:53:59;28.30;86.40
47765;DHT22;33529;49.242;8.670;2022-09-13T14:56:35;28.50;87.50
47765;DHT22;33529;49.242;8.670;2022-09-13T14:59:15;28.50;86.80
47765;DHT22;33529;49.242;8.670;2022-09-13T15:01:43;28.70;86.50
47765;DHT22;33529;49.242;8.670;2022-09-13T15:04:10;28.50;86.20
47765;DHT22;33529;49.242;8.670;2022-09-13T15:06:39;28.50;87.40
47765;DHT22;33529;49.242;8.670;2022-09-13T15:11:40;28.40;87.40
47765;DHT22;33529;49.242;8.670;2022-09-13T15:19:47;27.30;90.10
47765;DHT22;33529;49.242;8.670;2022-09-13T15:22:25;27.30;90.30
47765;DHT22;33529;49.242;8.670;2022-09-13T15:25:01;27.20;90.60
47765;DHT22;33529;49.242;8.670;2022-09-13T15:27:42;27.00;90.60
47765;DHT22;33529;49.242;8.670;2022-09-13T15:30:21;26.80;91.30
47765;DHT22;33529;49.242;8.670;2022-09-13T15:32:49;26.80;92.50
47765;DHT22;33529;49.242;8.670;2022-09-13T15:35:33;26.70;91.40
47765;DHT22;33529;49.242;8.670;2022-09-13T15:38:15;26.50;92.20
47765;DHT22;33529;49.242;8.670;2022-09-13T15:40:55;26.50;93.20
47765;DHT22;33529;49.242;8.670;2022-09-13T15:43:23;26.20;93.60
47765;DHT22;33529;49.242;8.670;2022-09-13T15:45:50;26.10;93.90
47765;DHT22;33529;49.242;8.670;2022-09-13T15:48:28;26.10;93.70
47765;DHT22;33529;49.242;8.670;2022-09-13T15:51:05;25.80;94.00
47765;DHT22;33529;49.242;8.670;2022-09-13T15:53:33;25.60;94.60
47765;DHT22;33529;49.242;8.670;2022-09-13T15:56:02;25.60;95.00
47765;DHT22;33529;49.242;8.670;2022-09-13T15:58:29;25.50;94.60
47765;DHT22;33529;49.242;8.670;2022-09-13T16:00:56;25.40;94.40
47765;DHT22;33529;49.242;8.670;2022-09-13T16:03:23;25.40;94.90
47765;DHT22;33529;49.242;8.670;2022-09-13T16:06:09;25.30;94.90
47765;DHT22;33529;49.242;8.670;2022-09-13T16:08:36;25.20;95.30
47765;DHT22;33529;49.242;8.670;2022-09-13T16:11:03;25.20;95.40
47765;DHT22;33529;49.242;8.670;2022-09-13T16:13:31;25.20;95.90
47765;DHT22;33529;49.242;8.670;2022-09-13T16:15:58;25.20;95.60
47765;DHT22;33529;49.242;8.670;2022-09-13T16:18:25;25.00;96.30
47765;DHT22;33529;49.242;8.670;2022-09-13T16:20:52;25.00;96.40
47765;DHT22;33529;49.242;8.670;2022-09-13T16:23:19;24.90;96.20
47765;DHT22;33529;49.242;8.670;2022-09-13T16:25:46;25.00;96.50
47765;DHT22;33529;49.242;8.670;2022-09-13T16:28:17;24.80;96.70
47765;DHT22;33529;49.242;8.670;2022-09-13T16:30:47;24.80;97.10
47765;DHT22;33529;49.242;8.670;2022-09-13T16:33:15;24.70;96.60
47765;DHT22;33529;49.242;8.670;2022-09-13T16:35:42;24.60;97.10
47765;DHT22;33529;49.242;8.670;2022-09-13T16:38:09;24.60;96.90
47765;DHT22;33529;49.242;8.670;2022-09-13T16:40:40;24.50;97.30
47765;DHT22;33529;49.242;8.670;2022-09-13T16:43:08;24.40;97.40
47765;DHT22;33529;49.242;8.670;2022-09-13T16:45:37;24.40;97.20
47765;DHT22;33529;49.242;8.670;2022-09-13T16:48:04;24.30;97.80
47765;DHT22;33529;49.242;8.670;2022-09-13T16:50:31;24.30;98.00
47765;DHT22;33529;49.242;8.670;2022-09-13T16:53:01;24.20;97.90
47765;DHT22;33529;49.242;8.670;2022-09-13T16:55:27;24.20;98.10
47765;DHT22;33529;49.242;8.670;2022-09-13T16:57:55;24.10;98.20
47765;DHT22;33529;49.242;8.670;2022-09-13T17:00:21;24.00;98.30
47765;DHT22;33529;49.242;8.670;2022-09-13T17:02:56;24.00;98.60
47765;DHT22;33529;49.242;8.670;2022-09-13T17:05:23;24.00;98.40
47765;DHT22;33529;49.242;8.670;2022-09-13T17:07:51;23.90;98.60
47765;DHT22;33529;49.242;8.670;2022-09-13T17:10:19;23.90;98.60
47765;DHT22;33529;49.242;8.670;2022-09-13T17:12:47;23.80;98.50
47765;DHT22;33529;49.242;8.670;2022-09-13T17:15:14;23.80;98.90
47765;DHT22;33529;49.242;8.670;2022-09-13T17:17:44;23.70;99.00
47765;DHT22;33529;49.242;8.670;2022-09-13T17:20:11;23.60;99.30
47765;DHT22;33529;49.242;8.670;2022-09-13T17:22:39;23.60;99.60
47765;DHT22;33529;49.242;8.670;2022-09-13T17:25:06;23.60;99.60
47765;DHT22;33529;49.242;8.670;2022-09-13T17:27:34;23.50;99.50
47765;DHT22;33529;49.242;8.670;2022-09-13T17:30:01;23.50;99.70
47765;DHT22;33529;49.242;8.670;2022-09-13T17:32:30;23.40;99.90
47765;DHT22;33529;49.242;8.670;2022-09-13T17:34:58;23.40;99.90
47765;DHT22;33529;49.242;8.670;2022-09-13T17:37:25;23.40;99.90
47765;DHT22;33529;49.242;8.670;2022-09-13T17:39:52;23.30;99.90
47765;DHT22;33529;49.242;8.670;2022-09-13T17:42:19;23.20;99.90
47765;DHT22;33529;49.242;8.670;2022-09-13T17:44:49;23.10;99.90
47765;DHT22;33529;49.242;8.670;2022-09-13T17:47:16;23.10;99.90
47765;DHT22;33529;49.242;8.670;2022-09-13T17:49:43;23.00;99.90
47765;DHT22;33529;49.242;8.670;2022-09-13T17:52:11;22.90;99.90
47765;DHT22;33529;49.242;8.670;2022-09-13T17:54:38;22.80;99.90
47765;DHT22;33529;49.242;8.670;2022-09-13T17:57:05;22.80;99.90
47765;DHT22;33529;49.242;8.670;2022-09-13T17:59:32;22.70;99.90
47765;DHT22;33529;49.242;8.670;2022-09-13T18:02:00;22.70;99.90
47765;DHT22;33529;49.242;8.670;2022-09-13T18:04:42;22.60;99.90
47765;DHT22;33529;49.242;8.670;2022-09-13T18:07:09;22.60;99.90
47765;DHT22;33529;49.242;8.670;2022-09-13T18:09:36;22.50;99.90
47765;DHT22;33529;49.242;8.670;2022-09-13T18:12:03;22.50;99.90
47765;DHT22;33529;49.242;8.670;2022-09-13T18:14:30;22.60;99.90
47765;DHT22;33529;49.242;8.670;2022-09-13T18:16:58;22.50;99.90
47765;DHT22;33529;49.242;8.670;2022-09-13T18:19:25;22.50;99.90
47765;DHT22;33529;49.242;8.670;2022-09-13T18:22:11;22.50;99.90
47765;DHT22;33529;49.242;8.670;2022-09-13T18:24:38;22.40;99.90
47765;DHT22;33529;49.242;8.670;2022-09-13T18:27:05;22.40;99.90
47765;DHT22;33529;49.242;8.670;2022-09-13T18:29:53;22.30;99.90
47765;DHT22;33529;49.242;8.670;2022-09-13T18:32:20;22.30;99.90
47765;DHT22;33529;49.242;8.670;2022-09-13T18:34:53;22.20;99.90
47765;DHT22;33529;49.242;8.670;2022-09-13T18:37:19;22.20;99.90
47765;DHT22;33529;49.242;8.670;2022-09-13T18:39:46;22.20;99.90
47765;DHT22;33529;49.242;8.670;2022-09-13T18:42:13;22.10;99.90
47765;DHT22;33529;49.242;8.670;2022-09-13T18:44:40;22.00;99.90
47765;DHT22;33529;49.242;8.670;2022-09-13T18:47:08;21.90;99.90